sensor_id;sensor_type;location;lat;lon;timestamp;pressure;altitude;pressure_sealevel;temperature;humidity
21357;BME280;10836;53.068;18.234;2022-11-12T00:02:50;102466.81;;;9.40;100.00
21357;BME280;10836;53.068;18.234;2022-11-12T00:05:36;102461.75;;;9.43;100.00
21357;BME280;10836;53.068;18.234;2022-11-12T00:08:22;102457.13;;;9.44;100.00
21357;BME280;10836;53.068;18.234;2022-11-12T00:11:08;102455.06;;;9.39;100.00
21357;BME280;10836;53.068;18.234;2022-11-12T00:13:54;102460.56;;;9.32;100.00
21357;BME280;10836;53.068;18.234;2022-11-12T00:16:40;102459.13;;;9.30;100.00
21357;BME280;10836;53.068;18.234;2022-11-12T00:19:26;102463.16;;;9.21;100.00
21357;BME280;10836;53.068;18.234;2022-11-12T00:22:11;102460.66;;;9.19;100.00
21357;BME280;10836;53.068;18.234;2022-11-12T00:24:57;102459.78;;;9.25;100.00
21357;BME280;10836;53.068;18.234;2022-11-12T00:27:43;102460.97;;;9.36;100.00
21357;BME280;10836;53.068;18.234;2022-11-12T00:30:29;102467.69;;;9.33;100.00
21357;BME280;10836;53.068;18.234;2022-11-12T00:33:15;102462.94;;;9.22;100.00
21357;BME280;10836;53.068;18.234;2022-11-12T00:36:01;102469.84;;;9.25;100.00
21357;BME280;10836;53.068;18.234;2022-11-12T00:38:46;102473.06;;;9.15;100.00
21357;BME280;10836;53.068;18.234;2022-11-12T00:41:32;102485.84;;;9.15;100.00
21357;BME280;10836;53.068;18.234;2022-11-12T00:44:18;102472.34;;;9.26;100.00
21357;BME280;10836;53.068;18.234;2022-11-12T00:47:06;102476.13;;;9.25;100.00
21357;BME280;10836;53.068;18.234;2022-11-12T00:49:51;102485.19;;;9.19;100.00
21357;BME280;10836;53.068;18.234;2022-11-12T00:52:37;102487.81;;;9.08;100.00
21357;BME280;10836;53.068;18.234;2022-11-12T00:55:23;102490.91;;;9.11;100.00
21357;BME280;10836;53.068;18.234;2022-11-12T00:58:08;102485.94;;;9.08;100.00
21357;BME280;10836;53.068;18.234;2022-11-12T01:00:55;102479.13;;;9.17;100.00
21357;BME280;10836;53.068;18.234;2022-11-12T01:03:41;102482.06;;;9.16;100.00
21357;BME280;10836;53.068;18.234;2022-11-12T01:06:27;102479.91;;;9.24;100.00
21357;BME280;10836;53.068;18.234;2022-11-12T01:09:13;102476.63;;;9.16;100.00
21357;BME280;10836;53.068;18.234;2022-11-12T01:11:58;102477.06;;;9.13;100.00
21357;BME280;10836;53.068;18.234;2022-11-12T01:14:43;102472.44;;;9.13;100.00
21357;BME280;10836;53.068;18.234;2022-11-12T01:17:29;102482.16;;;9.09;100.00
21357;BME280;10836;53.068;18.234;2022-11-12T01:20:14;102474.56;;;9.11;100.00
21357;BME280;10836;53.068;18.234;2022-11-12T01:23:00;102480.69;;;9.07;100.00
21357;BME280;10836;53.068;18.234;2022-11-12T01:25:46;102487.63;;;9.03;100.00
21357;BME280;10836;53.068;18.234;2022-11-12T01:28:32;102485.13;;;9.01;100.00
21357;BME280;10836;53.068;18.234;2022-11-12T01:31:23;102485.31;;;9.06;100.00
21357;BME280;10836;53.068;18.234;2022-11-12T01:34:09;102488.03;;;9.06;100.00
21357;BME280;10836;53.068;18.234;2022-11-12T01:36:54;102482.19;;;9.03;100.00
21357;BME280;10836;53.068;18.234;2022-11-12T01:39:40;102492.06;;;8.97;100.00
21357;BME280;10836;53.068;18.234;2022-11-12T01:42:29;102480.91;;;9.05;100.00
21357;BME280;10836;53.068;18.234;2022-11-12T01:45:16;102486.38;;;9.05;100.00
21357;BME280;10836;53.068;18.234;2022-11-12T01:48:02;102484.09;;;9.02;100.00
21357;BME280;10836;53.068;18.234;2022-11-12T01:50:49;102487.94;;;8.88;100.00
21357;BME280;10836;53.068;18.234;2022-11-12T01:53:39;102488.13;;;8.93;100.00
21357;BME280;10836;53.068;18.234;2022-11-12T01:56:28;102484.13;;;8.95;100.00
21357;BME280;10836;53.068;18.234;2022-11-12T01:59:37;102489.78;;;8.94;100.00
21357;BME280;10836;53.068;18.234;2022-11-12T02:02:25;102489.34;;;8.97;100.00
21357;BME280;10836;53.068;18.234;2022-11-12T02:05:12;102494.81;;;8.97;100.00
21357;BME280;10836;53.068;18.234;2022-11-12T02:07:59;102487.69;;;8.96;100.00
21357;BME280;10836;53.068;18.234;2022-11-12T02:10:45;102486.25;;;8.87;100.00
21357;BME280;10836;53.068;18.234;2022-11-12T02:13:31;102489.81;;;8.87;100.00
21357;BME280;10836;53.068;18.234;2022-11-12T02:16:37;102487.31;;;8.86;100.00
21357;BME280;10836;53.068;18.234;2022-11-12T02:19:23;102483.09;;;8.90;100.00
21357;BME280;10836;53.068;18.234;2022-11-12T02:22:11;102489.38;;;8.90;100.00
21357;BME280;10836;53.068;18.234;2022-11-12T02:24:56;102491.91;;;8.92;100.00
21357;BME280;10836;53.068;18.234;2022-11-12T02:27:43;102492.69;;;8.99;100.00
21357;BME280;10836;53.068;18.234;2022-11-12T02:30:34;102487.19;;;9.06;100.00
21357;BME280;10836;53.068;18.234;2022-11-12T02:33:21;102501.03;;;9.04;100.00
21357;BME280;10836;53.068;18.234;2022-11-12T02:36:06;102501.03;;;9.04;100.00
21357;BME280;10836;53.068;18.234;2022-11-12T02:38:52;102498.94;;;9.06;100.00
21357;BME280;10836;53.068;18.234;2022-11-12T02:41:37;102509.84;;;9.06;100.00
21357;BME280;10836;53.068;18.234;2022-11-12T02:44:23;102507.81;;;8.95;100.00
21357;BME280;10836;53.068;18.234;2022-11-12T02:47:09;102512.81;;;8.98;100.00
21357;BME280;10836;53.068;18.234;2022-11-12T02:49:54;102510.34;;;8.90;100.00
21357;BME280;10836;53.068;18.234;2022-11-12T02:52:40;102504.03;;;8.96;100.00
21357;BME280;10836;53.068;18.234;2022-11-12T02:55:25;102504.50;;;8.86;100.00
21357;BME280;10836;53.068;18.234;2022-11-12T02:58:11;102513.69;;;8.92;100.00
21357;BME280;10836;53.068;18.234;2022-11-12T03:00:57;102514.31;;;8.94;100.00
21357;BME280;10836;53.068;18.234;2022-11-12T03:03:43;102515.34;;;8.93;100.00
21357;BME280;10836;53.068;18.234;2022-11-12T03:06:29;102523.72;;;8.98;100.00
21357;BME280;10836;53.068;18.234;2022-11-12T03:09:15;102521.78;;;9.05;100.00
21357;BME280;10836;53.068;18.234;2022-11-12T03:12:01;102520.13;;;9.04;100.00
21357;BME280;10836;53.068;18.234;2022-11-12T03:14:46;102514.03;;;9.09;100.00
21357;BME280;10836;53.068;18.234;2022-11-12T03:17:35;102516.16;;;9.00;100.00
21357;BME280;10836;53.068;18.234;2022-11-12T03:20:21;102523.06;;;9.03;100.00
21357;BME280;10836;53.068;18.234;2022-11-12T03:23:09;102516.50;;;9.10;100.00
21357;BME280;10836;53.068;18.234;2022-11-12T03:25:55;102517.41;;;9.04;100.00
21357;BME280;10836;53.068;18.234;2022-11-12T03:28:41;102523.72;;;8.98;100.00
21357;BME280;10836;53.068;18.234;2022-11-12T03:31:26;102524.56;;;8.98;100.00
21357;BME280;10836;53.068;18.234;2022-11-12T03:34:12;102525.16;;;9.00;100.00
21357;BME280;10836;53.068;18.234;2022-11-12T03:36:57;102522.78;;;9.11;100.00
21357;BME280;10836;53.068;18.234;2022-11-12T03:39:44;102519.22;;;9.10;100.00
21357;BME280;10836;53.068;18.234;2022-11-12T03:42:29;102512.38;;;9.01;100.00
21357;BME280;10836;53.068;18.234;2022-11-12T03:45:15;102517.41;;;9.04;100.00
21357;BME280;10836;53.068;18.234;2022-11-12T03:48:01;102517.41;;;9.04;100.00
21357;BME280;10836;53.068;18.234;2022-11-12T03:50:47;102519.84;;;9.12;100.00
21357;BME280;10836;53.068;18.234;2022-11-12T03:53:32;102519.00;;;9.12;100.00
21357;BME280;10836;53.068;18.234;2022-11-12T03:56:18;102516.22;;;9.18;100.00
21357;BME280;10836;53.068;18.234;2022-11-12T03:59:04;102516.06;;;9.13;100.00
21357;BME280;10836;53.068;18.234;2022-11-12T04:01:49;102516.16;;;9.00;100.00
21357;BME280;10836;53.068;18.234;2022-11-12T04:04:35;102511.59;;;8.94;100.00
21357;BME280;10836;53.068;18.234;2022-11-12T04:07:39;102519.94;;;8.99;100.00
21357;BME280;10836;53.068;18.234;2022-11-12T04:10:43;102521.66;;;8.93;100.00
21357;BME280;10836;53.068;18.234;2022-11-12T04:13:29;102523.47;;;9.06;100.00
21357;BME280;10836;53.068;18.234;2022-11-12T04:16:20;102515.63;;;9.16;100.00
21357;BME280;10836;53.068;18.234;2022-11-12T04:19:24;102522.44;;;9.00;100.00
21357;BME280;10836;53.068;18.234;2022-11-12T04:22:28;102517.41;;;9.04;100.00
21357;BME280;10836;53.068;18.234;2022-11-12T04:25:14;102524.13;;;9.02;100.00
21357;BME280;10836;53.068;18.234;2022-11-12T04:28:18;102515.97;;;8.95;100.00
21357;BME280;10836;53.068;18.234;2022-11-12T04:31:03;102511.22;;;9.15;100.00
21357;BME280;10836;53.068;18.234;2022-11-12T04:33:49;102511.22;;;9.15;100.00
21357;BME280;10836;53.068;18.234;2022-11-12T04:36:34;102512.72;;;9.11;100.00
21357;BME280;10836;53.068;18.234;2022-11-12T04:39:20;102507.25;;;9.11;100.00
21357;BME280;10836;53.068;18.234;2022-11-12T04:42:07;102497.72;;;9.02;100.00
21357;BME280;10836;53.068;18.234;2022-11-12T04:45:12;102504.81;;;9.03;100.00
21357;BME280;10836;53.068;18.234;2022-11-12T04:47:57;102502.22;;;9.15;100.00
21357;BME280;10836;53.068;18.234;2022-11-12T04:50:45;102501.22;;;9.09;100.00
21357;BME280;10836;53.068;18.234;2022-11-12T04:53:31;102499.22;;;9.23;100.00
21357;BME280;10836;53.068;18.234;2022-11-12T04:56:17;102502.66;;;9.12;100.00
21357;BME280;10836;53.068;18.234;2022-11-12T04:59:03;102504.53;;;9.11;100.00
21357;BME280;10836;53.068;18.234;2022-11-12T05:01:48;102498.81;;;9.19;100.00
21357;BME280;10836;53.068;18.234;2022-11-12T05:04:34;102503.47;;;9.12;100.00
21357;BME280;10836;53.068;18.234;2022-11-12T05:07:20;102503.25;;;9.14;100.00
21357;BME280;10836;53.068;18.234;2022-11-12T05:10:07;102495.47;;;9.17;100.00
21357;BME280;10836;53.068;18.234;2022-11-12T05:12:52;102496.94;;;9.20;100.00
21357;BME280;10836;53.068;18.234;2022-11-12T05:15:38;102498.38;;;9.22;100.00
21357;BME280;10836;53.068;18.234;2022-11-12T05:18:23;102497.59;;;9.15;100.00
21357;BME280;10836;53.068;18.234;2022-11-12T05:21:09;102500.31;;;9.15;100.00
21357;BME280;10836;53.068;18.234;2022-11-12T05:24:14;102496.53;;;9.16;100.00
21357;BME280;10836;53.068;18.234;2022-11-12T05:27:20;102500.13;;;9.10;100.00
21357;BME280;10836;53.068;18.234;2022-11-12T05:30:06;102509.72;;;9.19;100.00
21357;BME280;10836;53.068;18.234;2022-11-12T05:32:52;102505.38;;;9.12;100.00
21357;BME280;10836;53.068;18.234;2022-11-12T05:35:38;102505.56;;;9.17;100.00
21357;BME280;10836;53.068;18.234;2022-11-12T05:38:24;102516.75;;;9.09;100.00
21357;BME280;10836;53.068;18.234;2022-11-12T05:41:10;102513.53;;;9.12;100.00
21357;BME280;10836;53.068;18.234;2022-11-12T05:44:01;102513.25;;;9.26;100.00
21357;BME280;10836;53.068;18.234;2022-11-12T05:46:47;102516.19;;;9.25;100.00
21357;BME280;10836;53.068;18.234;2022-11-12T05:49:33;102527.31;;;9.23;100.00
21357;BME280;10836;53.068;18.234;2022-11-12T05:52:18;102519.78;;;9.19;100.00
21357;BME280;10836;53.068;18.234;2022-11-12T05:55:04;102529.88;;;9.18;100.00
21357;BME280;10836;53.068;18.234;2022-11-12T05:57:50;102527.75;;;9.20;100.00
21357;BME280;10836;53.068;18.234;2022-11-12T06:00:35;102526.13;;;9.13;100.00
21357;BME280;10836;53.068;18.234;2022-11-12T06:03:23;102529.88;;;9.18;100.00
21357;BME280;10836;53.068;18.234;2022-11-12T06:06:09;102529.88;;;9.18;100.00
21357;BME280;10836;53.068;18.234;2022-11-12T06:08:55;102525.28;;;9.12;100.00
21357;BME280;10836;53.068;18.234;2022-11-12T06:11:40;102530.41;;;9.02;100.00
21357;BME280;10836;53.068;18.234;2022-11-12T06:14:26;102526.53;;;9.16;100.00
21357;BME280;10836;53.068;18.234;2022-11-12T06:17:12;102521.88;;;9.23;100.00
21357;BME280;10836;53.068;18.234;2022-11-12T06:19:57;102522.75;;;9.17;100.00
21357;BME280;10836;53.068;18.234;2022-11-12T06:22:43;102526.44;;;9.29;100.00
21357;BME280;10836;53.068;18.234;2022-11-12T06:25:29;102537.41;;;9.16;100.00
21357;BME280;10836;53.068;18.234;2022-11-12T06:28:15;102537.78;;;9.26;100.00
21357;BME280;10836;53.068;18.234;2022-11-12T06:31:00;102544.91;;;9.27;100.00
21357;BME280;10836;53.068;18.234;2022-11-12T06:33:47;102546.13;;;9.31;100.00
21357;BME280;10836;53.068;18.234;2022-11-12T06:36:32;102542.19;;;9.27;100.00
21357;BME280;10836;53.068;18.234;2022-11-12T06:39:19;102549.88;;;9.37;100.00
21357;BME280;10836;53.068;18.234;2022-11-12T06:42:05;102545.69;;;9.34;100.00
21357;BME280;10836;53.068;18.234;2022-11-12T06:44:50;102547.38;;;9.36;100.00
21357;BME280;10836;53.068;18.234;2022-11-12T06:47:36;102549.44;;;9.40;100.00
21357;BME280;10836;53.068;18.234;2022-11-12T06:50:21;102552.56;;;9.44;100.00
21357;BME280;10836;53.068;18.234;2022-11-12T06:53:07;102549.72;;;9.57;100.00
21357;BME280;10836;53.068;18.234;2022-11-12T06:56:00;102552.34;;;9.70;100.00
21357;BME280;10836;53.068;18.234;2022-11-12T06:58:45;102563.53;;;9.62;100.00
21357;BME280;10836;53.068;18.234;2022-11-12T07:01:31;102565.63;;;9.60;100.00
21357;BME280;10836;53.068;18.234;2022-11-12T07:04:17;102567.00;;;9.51;100.00
21357;BME280;10836;53.068;18.234;2022-11-12T07:07:03;102561.53;;;9.51;100.00
21357;BME280;10836;53.068;18.234;2022-11-12T07:09:54;102578.66;;;9.58;100.00
21357;BME280;10836;53.068;18.234;2022-11-12T07:12:40;102579.44;;;9.65;100.00
21357;BME280;10836;53.068;18.234;2022-11-12T07:15:26;102575.88;;;9.64;100.00
21357;BME280;10836;53.068;18.234;2022-11-12T07:18:12;102576.88;;;9.70;100.00
21357;BME280;10836;53.068;18.234;2022-11-12T07:21:04;102575.50;;;9.86;100.00
21357;BME280;10836;53.068;18.234;2022-11-12T07:23:50;102583.13;;;9.77;100.00
21357;BME280;10836;53.068;18.234;2022-11-12T07:26:35;102586.91;;;9.76;100.00
21357;BME280;10836;53.068;18.234;2022-11-12T07:29:21;102588.59;;;9.77;100.00
21357;BME280;10836;53.068;18.234;2022-11-12T07:32:26;102588.41;;;9.72;100.00
21357;BME280;10836;53.068;18.234;2022-11-12T07:35:12;102600.72;;;9.81;100.00
21357;BME280;10836;53.068;18.234;2022-11-12T07:37:57;102596.22;;;9.93;100.00
21357;BME280;10836;53.068;18.234;2022-11-12T07:40:44;102594.13;;;9.95;100.00
21357;BME280;10836;53.068;18.234;2022-11-12T07:43:30;102604.41;;;9.93;100.00
21357;BME280;10836;53.068;18.234;2022-11-12T07:46:24;102594.13;;;9.95;100.00
21357;BME280;10836;53.068;18.234;2022-11-12T07:49:10;102595.47;;;10.05;100.00
21357;BME280;10836;53.068;18.234;2022-11-12T07:51:55;102590.47;;;10.01;100.00
21357;BME280;10836;53.068;18.234;2022-11-12T07:54:41;102588.41;;;9.97;100.00
21357;BME280;10836;53.068;18.234;2022-11-12T07:57:26;102592.06;;;10.09;100.00
21357;BME280;10836;53.068;18.234;2022-11-12T08:00:12;102588.69;;;10.14;100.00
21357;BME280;10836;53.068;18.234;2022-11-12T08:02:59;102598.28;;;10.23;100.00
21357;BME280;10836;53.068;18.234;2022-11-12T08:05:45;102595.66;;;10.10;100.00
21357;BME280;10836;53.068;18.234;2022-11-12T08:08:31;102605.88;;;10.21;100.00
21357;BME280;10836;53.068;18.234;2022-11-12T08:11:16;102605.88;;;10.21;100.00
21357;BME280;10836;53.068;18.234;2022-11-12T08:14:02;102601.19;;;10.28;100.00
21357;BME280;10836;53.068;18.234;2022-11-12T08:16:48;102595.72;;;10.28;100.00
21357;BME280;10836;53.068;18.234;2022-11-12T08:19:34;102601.50;;;10.38;100.00
21357;BME280;10836;53.068;18.234;2022-11-12T08:22:20;102596.31;;;10.30;100.00
21357;BME280;10836;53.068;18.234;2022-11-12T08:25:06;102607.88;;;10.32;100.00
21357;BME280;10836;53.068;18.234;2022-11-12T08:27:55;102599.00;;;10.37;100.00
21357;BME280;10836;53.068;18.234;2022-11-12T08:30:41;102604.81;;;10.40;100.00
21357;BME280;10836;53.068;18.234;2022-11-12T08:33:27;102605.81;;;10.27;100.00
21357;BME280;10836;53.068;18.234;2022-11-12T08:36:14;102606.97;;;10.38;100.00
21357;BME280;10836;53.068;18.234;2022-11-12T08:39:00;102607.88;;;10.32;100.00
21357;BME280;10836;53.068;18.234;2022-11-12T08:41:45;102605.66;;;10.41;100.00
21357;BME280;10836;53.068;18.234;2022-11-12T08:44:31;102618.41;;;10.47;100.00
21357;BME280;10836;53.068;18.234;2022-11-12T08:47:16;102617.72;;;10.51;100.00
21357;BME280;10836;53.068;18.234;2022-11-12T08:50:02;102625.31;;;10.49;100.00
21357;BME280;10836;53.068;18.234;2022-11-12T08:52:48;102623.69;;;10.42;100.00
21357;BME280;10836;53.068;18.234;2022-11-12T08:55:34;102629.19;;;10.60;100.00
21357;BME280;10836;53.068;18.234;2022-11-12T08:58:20;102634.13;;;10.51;100.00
21357;BME280;10836;53.068;18.234;2022-11-12T09:01:06;102643.25;;;10.63;100.00
21357;BME280;10836;53.068;18.234;2022-11-12T09:03:52;102646.59;;;10.65;100.00
21357;BME280;10836;53.068;18.234;2022-11-12T09:06:38;102649.03;;;10.74;100.00
21357;BME280;10836;53.068;18.234;2022-11-12T09:09:24;102646.59;;;10.65;100.00
21357;BME280;10836;53.068;18.234;2022-11-12T09:12:10;102648.34;;;10.78;100.00
21357;BME280;10836;53.068;18.234;2022-11-12T09:15:05;102645.66;;;10.90;100.00
21357;BME280;10836;53.068;18.234;2022-11-12T09:18:14;102663.44;;;10.81;100.00
21357;BME280;10836;53.068;18.234;2022-11-12T09:21:06;102658.09;;;10.86;100.00
21357;BME280;10836;53.068;18.234;2022-11-12T09:23:52;102659.78;;;10.69;100.00
21357;BME280;10836;53.068;18.234;2022-11-12T09:26:38;102671.03;;;10.79;100.00
21357;BME280;10836;53.068;18.234;2022-11-12T09:29:23;102670.59;;;10.82;100.00
21357;BME280;10836;53.068;18.234;2022-11-12T09:32:09;102658.41;;;10.96;100.00
21357;BME280;10836;53.068;18.234;2022-11-12T09:34:54;102667.69;;;10.95;100.00
21357;BME280;10836;53.068;18.234;2022-11-12T09:37:40;102651.97;;;11.09;100.00
21357;BME280;10836;53.068;18.234;2022-11-12T09:43:33;102656.00;;;11.06;100.00
21357;BME280;10836;53.068;18.234;2022-11-12T09:46:50;102665.25;;;11.23;100.00
21357;BME280;10836;53.068;18.234;2022-11-12T09:52:50;102659.47;;;11.13;100.00
21357;BME280;10836;53.068;18.234;2022-11-12T09:55:42;102658.09;;;11.22;100.00
21357;BME280;10836;53.068;18.234;2022-11-12T09:58:28;102660.31;;;11.44;100.00
21357;BME280;10836;53.068;18.234;2022-11-12T10:01:15;102659.72;;;11.42;100.00
21357;BME280;10836;53.068;18.234;2022-11-12T10:25:46;102646.22;;;11.58;100.00
21357;BME280;10836;53.068;18.234;2022-11-12T10:28:36;102644.47;;;11.64;100.00
21357;BME280;10836;53.068;18.234;2022-11-12T10:31:24;102652.81;;;11.69;100.00
21357;BME280;10836;53.068;18.234;2022-11-12T10:37:03;102637.19;;;11.99;100.00
21357;BME280;10836;53.068;18.234;2022-11-12T10:39:49;102646.81;;;11.90;100.00
21357;BME280;10836;53.068;18.234;2022-11-12T10:42:55;102638.41;;;11.74;100.00
21357;BME280;10836;53.068;18.234;2022-11-12T10:45:41;102649.13;;;11.75;100.00
21357;BME280;10836;53.068;18.234;2022-11-12T10:48:30;102633.75;;;11.74;100.00
21357;BME280;10836;53.068;18.234;2022-11-12T10:51:38;102638.34;;;11.80;100.00
21357;BME280;10836;53.068;18.234;2022-11-12T10:54:29;102651.69;;;11.88;100.00
21357;BME280;10836;53.068;18.234;2022-11-12T10:57:25;102639.22;;;11.74;100.00
21357;BME280;10836;53.068;18.234;2022-11-12T11:02:58;102641.06;;;11.80;100.00
21357;BME280;10836;53.068;18.234;2022-11-12T11:08:36;102629.78;;;11.88;100.00
21357;BME280;10836;53.068;18.234;2022-11-12T11:11:30;102626.38;;;12.05;100.00
21357;BME280;10836;53.068;18.234;2022-11-12T11:17:15;102627.84;;;11.77;100.00
21357;BME280;10836;53.068;18.234;2022-11-12T11:20:03;102629.34;;;11.61;100.00
21357;BME280;10836;53.068;18.234;2022-11-12T11:23:03;102623.50;;;11.58;100.00
21357;BME280;10836;53.068;18.234;2022-11-12T11:25:53;102619.97;;;11.69;100.00
21357;BME280;10836;53.068;18.234;2022-11-12T11:41:50;102617.31;;;11.92;100.00
21357;BME280;10836;53.068;18.234;2022-11-12T11:44:18;102612.09;;;12.03;100.00
21357;BME280;10836;53.068;18.234;2022-11-12T11:47:25;102615.75;;;12.20;100.00
21357;BME280;10836;53.068;18.234;2022-11-12T11:50:39;102622.69;;;12.11;100.00
21357;BME280;10836;53.068;18.234;2022-11-12T11:56:42;102613.75;;;12.04;100.00
21357;BME280;10836;53.068;18.234;2022-11-12T11:59:57;102616.22;;;12.17;100.00
21357;BME280;10836;53.068;18.234;2022-11-12T12:02:51;102602.44;;;12.12;100.00
21357;BME280;10836;53.068;18.234;2022-11-12T12:05:45;102616.38;;;12.10;100.00
21357;BME280;10836;53.068;18.234;2022-11-12T12:18:18;102607.06;;;12.23;100.00
21357;BME280;10836;53.068;18.234;2022-11-12T12:21:18;102628.38;;;12.21;100.00
21357;BME280;10836;53.068;18.234;2022-11-12T12:24:11;102617.91;;;12.18;100.00
21357;BME280;10836;53.068;18.234;2022-11-12T12:27:10;102620.28;;;12.26;100.00
21357;BME280;10836;53.068;18.234;2022-11-12T12:30:22;102616.72;;;12.37;100.00
21357;BME280;10836;53.068;18.234;2022-11-12T12:33:28;102618.75;;;12.30;100.00
21357;BME280;10836;53.068;18.234;2022-11-12T12:36:20;102627.44;;;12.15;100.00
21357;BME280;10836;53.068;18.234;2022-11-12T12:39:13;102622.19;;;12.14;100.00
21357;BME280;10836;53.068;18.234;2022-11-12T12:42:17;102628.84;;;12.18;100.00
21357;BME280;10836;53.068;18.234;2022-11-12T12:48:17;102628.97;;;12.23;100.00
21357;BME280;10836;53.068;18.234;2022-11-12T12:51:03;102617.69;;;12.31;100.00
21357;BME280;10836;53.068;18.234;2022-11-12T12:53:49;102627.91;;;12.36;100.00
21357;BME280;10836;53.068;18.234;2022-11-12T12:59:22;102630.06;;;12.22;100.00
21357;BME280;10836;53.068;18.234;2022-11-12T13:02:20;102623.97;;;12.20;100.00
21357;BME280;10836;53.068;18.234;2022-11-12T13:05:26;102637.19;;;12.23;100.00
21357;BME280;10836;53.068;18.234;2022-11-12T13:08:19;102629.34;;;12.15;100.00
21357;BME280;10836;53.068;18.234;2022-11-12T13:11:08;102636.25;;;12.06;100.00
21357;BME280;10836;53.068;18.234;2022-11-12T13:13:53;102637.91;;;12.07;100.00
21357;BME280;10836;53.068;18.234;2022-11-12T13:25:30;102633.63;;;12.11;100.00
21357;BME280;10836;53.068;18.234;2022-11-12T13:28:16;102638.41;;;12.04;100.00
21357;BME280;10836;53.068;18.234;2022-11-12T13:31:02;102633.28;;;12.07;100.00
21357;BME280;10836;53.068;18.234;2022-11-12T13:33:48;102632.44;;;12.07;100.00
21357;BME280;10836;53.068;18.234;2022-11-12T13:36:34;102628.63;;;12.08;100.00
21357;BME280;10836;53.068;18.234;2022-11-12T13:39:21;102625.91;;;12.08;100.00
21357;BME280;10836;53.068;18.234;2022-11-12T13:42:17;102633.63;;;12.11;100.00
21357;BME280;10836;53.068;18.234;2022-11-12T13:45:23;102628.03;;;12.29;100.00
21357;BME280;10836;53.068;18.234;2022-11-12T13:48:28;102640.06;;;12.28;100.00
21357;BME280;10836;53.068;18.234;2022-11-12T13:51:42;102636.84;;;12.19;100.00
21357;BME280;10836;53.068;18.234;2022-11-12T13:54:34;102632.56;;;12.00;100.00
21357;BME280;10836;53.068;18.234;2022-11-12T13:57:30;102633.38;;;12.01;100.00
21357;BME280;10836;53.068;18.234;2022-11-12T14:03:04;102637.44;;;12.10;100.00
21357;BME280;10836;53.068;18.234;2022-11-12T14:05:51;102634.47;;;12.11;100.00
21357;BME280;10836;53.068;18.234;2022-11-12T14:18:10;102632.78;;;11.98;100.00
21357;BME280;10836;53.068;18.234;2022-11-12T14:21:05;102630.03;;;11.98;100.00
21357;BME280;10836;53.068;18.234;2022-11-12T14:23:51;102631.34;;;11.96;100.00
21357;BME280;10836;53.068;18.234;2022-11-12T14:26:41;102642.31;;;11.96;100.00
21357;BME280;10836;53.068;18.234;2022-11-12T14:29:27;102631.47;;;11.89;100.00
21357;BME280;10836;53.068;18.234;2022-11-12T14:32:20;102643.88;;;11.74;100.00
21357;BME280;10836;53.068;18.234;2022-11-12T14:35:40;102643.34;;;11.83;100.00
21357;BME280;10836;53.068;18.234;2022-11-12T14:41:20;102637.34;;;11.75;100.00
21357;BME280;10836;53.068;18.234;2022-11-12T14:44:20;102649.47;;;11.67;100.00
21357;BME280;10836;53.068;18.234;2022-11-12T14:47:08;102645.31;;;11.64;100.00
21357;BME280;10836;53.068;18.234;2022-11-12T14:49:54;102651.72;;;11.58;100.00
21357;BME280;10836;53.068;18.234;2022-11-12T14:52:43;102651.94;;;11.57;100.00
21357;BME280;10836;53.068;18.234;2022-11-12T14:55:36;102649.94;;;11.64;100.00
21357;BME280;10836;53.068;18.234;2022-11-12T14:58:22;102651.63;;;11.65;100.00
21357;BME280;10836;53.068;18.234;2022-11-12T15:01:27;102653.38;;;11.59;100.00
21357;BME280;10836;53.068;18.234;2022-11-12T15:04:58;102652.72;;;11.46;100.00
21357;BME280;10836;53.068;18.234;2022-11-12T15:08:03;102656.06;;;11.48;100.00
21357;BME280;10836;53.068;18.234;2022-11-12T15:10:49;102647.81;;;11.36;100.00
21357;BME280;10836;53.068;18.234;2022-11-12T15:13:39;102654.72;;;11.39;100.00
21357;BME280;10836;53.068;18.234;2022-11-12T15:16:28;102657.13;;;11.47;100.00
21357;BME280;10836;53.068;18.234;2022-11-12T15:19:18;102663.06;;;11.44;100.00
21357;BME280;10836;53.068;18.234;2022-11-12T15:22:04;102660.78;;;11.41;100.00
21357;BME280;10836;53.068;18.234;2022-11-12T15:24:50;102667.47;;;11.45;100.00
21357;BME280;10836;53.068;18.234;2022-11-12T15:27:40;102665.34;;;11.28;100.00
21357;BME280;10836;53.068;18.234;2022-11-12T15:30:29;102664.66;;;11.33;100.00
21357;BME280;10836;53.068;18.234;2022-11-12T15:33:21;102668.38;;;11.39;100.00
21357;BME280;10836;53.068;18.234;2022-11-12T15:36:16;102666.81;;;11.31;100.00
21357;BME280;10836;53.068;18.234;2022-11-12T15:39:03;102669.59;;;11.43;100.00
21357;BME280;10836;53.068;18.234;2022-11-12T15:42:14;102670.97;;;11.33;100.00
21357;BME280;10836;53.068;18.234;2022-11-12T15:45:02;102662.63;;;11.28;100.00
21357;BME280;10836;53.068;18.234;2022-11-12T15:47:49;102671.91;;;11.27;100.00
21357;BME280;10836;53.068;18.234;2022-11-12T15:50:35;102675.84;;;11.31;100.00
21357;BME280;10836;53.068;18.234;2022-11-12T15:53:20;102667.78;;;11.37;100.00
21357;BME280;10836;53.068;18.234;2022-11-12T15:56:14;102674.78;;;11.32;100.00
21357;BME280;10836;53.068;18.234;2022-11-12T15:59:02;102669.91;;;11.34;100.00
21357;BME280;10836;53.068;18.234;2022-11-12T16:01:48;102677.50;;;11.32;100.00
21357;BME280;10836;53.068;18.234;2022-11-12T16:04:34;102676.00;;;11.37;100.00